sensor_id;sensor_type;location;lat;lon;timestamp;pressure;altitude;pressure_sealevel;temperature;humidity
48200;BME280;33990;44.602;10.976;2023-04-21T00:00:07;100769.22;;;19.83;56.68
48200;BME280;33990;44.602;10.976;2023-04-21T00:02:37;100769.22;;;19.83;56.57
48200;BME280;33990;44.602;10.976;2023-04-21T00:05:07;100767.53;;;19.82;56.52
48200;BME280;33990;44.602;10.976;2023-04-21T00:07:36;100773.75;;;19.83;56.65
48200;BME280;33990;44.602;10.976;2023-04-21T00:10:09;100769.38;;;19.82;56.60
48200;BME280;33990;44.602;10.976;2023-04-21T00:12:37;100769.38;;;19.82;56.58
48200;BME280;33990;44.602;10.976;2023-04-21T00:15:05;100769.38;;;19.82;56.47
48200;BME280;33990;44.602;10.976;2023-04-21T00:17:32;100766.69;;;19.82;56.47
48200;BME280;33990;44.602;10.976;2023-04-21T00:19:59;100766.69;;;19.82;56.58
48200;BME280;33990;44.602;10.976;2023-04-21T00:22:27;100758.75;;;19.80;56.46
48200;BME280;33990;44.602;10.976;2023-04-21T00:24:54;100756.91;;;19.81;56.45
48200;BME280;33990;44.602;10.976;2023-04-21T00:27:21;100753.38;;;19.80;56.53
48200;BME280;33990;44.602;10.976;2023-04-21T00:29:49;100756.91;;;19.81;56.47
48200;BME280;33990;44.602;10.976;2023-04-21T00:32:16;100759.59;;;19.81;56.65
48200;BME280;33990;44.602;10.976;2023-04-21T00:34:44;100754.22;;;19.81;56.67
48200;BME280;33990;44.602;10.976;2023-04-21T00:37:11;100754.22;;;19.81;56.72
48200;BME280;33990;44.602;10.976;2023-04-21T00:39:38;100758.63;;;19.82;56.59
48200;BME280;33990;44.602;10.976;2023-04-21T00:42:06;100760.47;;;19.81;56.49
48200;BME280;33990;44.602;10.976;2023-04-21T00:44:34;100764.13;;;19.80;56.55
48200;BME280;33990;44.602;10.976;2023-04-21T00:47:03;100757.06;;;19.79;56.54
48200;BME280;33990;44.602;10.976;2023-04-21T00:49:31;100759.59;;;19.81;56.69
48200;BME280;33990;44.602;10.976;2023-04-21T00:51:59;100754.38;;;19.79;56.54
48200;BME280;33990;44.602;10.976;2023-04-21T00:54:27;100757.06;;;19.79;56.65
48200;BME280;33990;44.602;10.976;2023-04-21T00:56:54;100753.53;;;19.79;56.50
48200;BME280;33990;44.602;10.976;2023-04-21T00:59:26;100748.16;;;19.79;56.44
48200;BME280;33990;44.602;10.976;2023-04-21T01:01:55;100748.16;;;19.79;56.43
48200;BME280;33990;44.602;10.976;2023-04-21T01:04:23;100749.00;;;19.79;56.54
48200;BME280;33990;44.602;10.976;2023-04-21T01:06:51;100747.16;;;19.80;56.54
48200;BME280;33990;44.602;10.976;2023-04-21T01:09:18;100756.22;;;19.79;56.64
48200;BME280;33990;44.602;10.976;2023-04-21T01:12:03;100756.22;;;19.79;56.62
48200;BME280;33990;44.602;10.976;2023-04-21T01:14:34;100757.91;;;19.80;56.47
48200;BME280;33990;44.602;10.976;2023-04-21T01:17:03;100765.97;;;19.80;56.66
48200;BME280;33990;44.602;10.976;2023-04-21T01:19:37;100769.66;;;19.79;56.69
48200;BME280;33990;44.602;10.976;2023-04-21T01:22:10;100765.13;;;19.79;56.65
48200;BME280;33990;44.602;10.976;2023-04-21T01:24:43;100765.13;;;19.79;56.76
48200;BME280;33990;44.602;10.976;2023-04-21T01:29:40;100766.97;;;19.79;56.67
48200;BME280;33990;44.602;10.976;2023-04-21T01:32:12;100760.75;;;19.78;56.71
48200;BME280;33990;44.602;10.976;2023-04-21T01:34:40;100765.25;;;19.78;56.81
48200;BME280;33990;44.602;10.976;2023-04-21T01:37:14;100766.97;;;19.79;56.70
48200;BME280;33990;44.602;10.976;2023-04-21T01:39:45;100766.13;;;19.78;56.69
48200;BME280;33990;44.602;10.976;2023-04-21T01:42:13;100759.91;;;19.78;56.65
48200;BME280;33990;44.602;10.976;2023-04-21T01:44:41;100756.38;;;19.77;56.57
48200;BME280;33990;44.602;10.976;2023-04-21T01:47:09;100761.72;;;19.77;56.77
48200;BME280;33990;44.602;10.976;2023-04-21T01:49:38;100756.38;;;19.77;56.71
48200;BME280;33990;44.602;10.976;2023-04-21T01:52:06;100759.06;;;19.77;56.82
48200;BME280;33990;44.602;10.976;2023-04-21T01:54:34;100763.44;;;19.78;56.68
48200;BME280;33990;44.602;10.976;2023-04-21T01:57:02;100762.44;;;19.79;56.85
48200;BME280;33990;44.602;10.976;2023-04-21T01:59:29;100760.75;;;19.78;56.65
48200;BME280;33990;44.602;10.976;2023-04-21T02:01:56;100764.28;;;19.79;56.63
48200;BME280;33990;44.602;10.976;2023-04-21T02:04:24;100759.91;;;19.78;56.75
48200;BME280;33990;44.602;10.976;2023-04-21T02:06:52;100760.75;;;19.78;56.87
48200;BME280;33990;44.602;10.976;2023-04-21T02:09:19;100764.44;;;19.77;56.71
48200;BME280;33990;44.602;10.976;2023-04-21T02:11:47;100766.13;;;19.78;56.77
48200;BME280;33990;44.602;10.976;2023-04-21T02:14:15;100765.13;;;19.79;56.92
48200;BME280;33990;44.602;10.976;2023-04-21T02:16:45;100765.25;;;19.78;56.78
48200;BME280;33990;44.602;10.976;2023-04-21T02:19:12;100766.13;;;19.78;56.76
48200;BME280;33990;44.602;10.976;2023-04-21T02:21:39;100762.59;;;19.78;56.90
48200;BME280;33990;44.602;10.976;2023-04-21T02:24:07;100766.97;;;19.79;56.69
48200;BME280;33990;44.602;10.976;2023-04-21T02:26:34;100765.25;;;19.78;56.67
48200;BME280;33990;44.602;10.976;2023-04-21T02:29:01;100766.22;;;19.76;56.71
48200;BME280;33990;44.602;10.976;2023-04-21T02:31:29;100768.91;;;19.76;56.60
48200;BME280;33990;44.602;10.976;2023-04-21T02:33:56;100768.06;;;19.76;56.68
48200;BME280;33990;44.602;10.976;2023-04-21T02:36:24;100770.75;;;19.76;56.76
48200;BME280;33990;44.602;10.976;2023-04-21T02:38:56;100768.91;;;19.76;56.56
48200;BME280;33990;44.602;10.976;2023-04-21T02:41:24;100772.59;;;19.75;56.62
48200;BME280;33990;44.602;10.976;2023-04-21T02:43:51;100766.38;;;19.75;56.78
48200;BME280;33990;44.602;10.976;2023-04-21T02:46:21;100766.38;;;19.75;56.67
48200;BME280;33990;44.602;10.976;2023-04-21T02:48:48;100757.47;;;19.74;56.83
48200;BME280;33990;44.602;10.976;2023-04-21T02:51:18;100763.69;;;19.75;56.66
48200;BME280;33990;44.602;10.976;2023-04-21T02:53:46;100762.84;;;19.74;56.69
48200;BME280;33990;44.602;10.976;2023-04-21T02:56:13;100764.69;;;19.74;56.73
48200;BME280;33990;44.602;10.976;2023-04-21T02:58:41;100757.47;;;19.74;56.61
48200;BME280;33990;44.602;10.976;2023-04-21T03:01:08;100761.00;;;19.75;56.64
48200;BME280;33990;44.602;10.976;2023-04-21T03:03:36;100760.16;;;19.74;56.64
48200;BME280;33990;44.602;10.976;2023-04-21T03:06:04;100761.16;;;19.73;56.64
48200;BME280;33990;44.602;10.976;2023-04-21T03:08:31;100761.16;;;19.73;56.63
48200;BME280;33990;44.602;10.976;2023-04-21T03:10:59;100761.16;;;19.73;56.45
48200;BME280;33990;44.602;10.976;2023-04-21T03:13:27;100758.47;;;19.73;56.70
48200;BME280;33990;44.602;10.976;2023-04-21T03:15:54;100759.31;;;19.74;56.73
48200;BME280;33990;44.602;10.976;2023-04-21T03:18:22;100761.16;;;19.73;56.55
48200;BME280;33990;44.602;10.976;2023-04-21T03:20:50;100763.00;;;19.73;56.66
48200;BME280;33990;44.602;10.976;2023-04-21T03:23:17;100766.53;;;19.73;56.64
48200;BME280;33990;44.602;10.976;2023-04-21T03:25:44;100763.84;;;19.73;56.51
48200;BME280;33990;44.602;10.976;2023-04-21T03:28:12;100768.38;;;19.73;56.79
48200;BME280;33990;44.602;10.976;2023-04-21T03:30:39;100762.13;;;19.72;56.55
48200;BME280;33990;44.602;10.976;2023-04-21T03:33:07;100765.69;;;19.73;56.62
48200;BME280;33990;44.602;10.976;2023-04-21T03:35:34;100768.38;;;19.73;56.72
48200;BME280;33990;44.602;10.976;2023-04-21T03:38:01;100763.84;;;19.73;56.60
48200;BME280;33990;44.602;10.976;2023-04-21T03:40:30;100772.00;;;19.72;56.69
48200;BME280;33990;44.602;10.976;2023-04-21T03:42:58;100772.88;;;19.72;56.54
48200;BME280;33990;44.602;10.976;2023-04-21T03:45:25;100773.00;;;19.71;56.68
48200;BME280;33990;44.602;10.976;2023-04-21T03:47:53;100772.88;;;19.72;56.72
48200;BME280;33990;44.602;10.976;2023-04-21T03:50:22;100778.22;;;19.72;56.71
48200;BME280;33990;44.602;10.976;2023-04-21T03:52:49;100777.38;;;19.72;56.68
48200;BME280;33990;44.602;10.976;2023-04-21T03:55:17;100778.38;;;19.71;56.51
48200;BME280;33990;44.602;10.976;2023-04-21T03:57:44;100782.75;;;19.72;56.55
48200;BME280;33990;44.602;10.976;2023-04-21T04:00:12;100779.22;;;19.71;56.46
48200;BME280;33990;44.602;10.976;2023-04-21T04:02:39;100783.75;;;19.71;56.62
48200;BME280;33990;44.602;10.976;2023-04-21T04:05:07;100786.44;;;19.71;56.57
48200;BME280;33990;44.602;10.976;2023-04-21T04:07:34;100790.97;;;19.70;56.64
48200;BME280;33990;44.602;10.976;2023-04-21T04:10:03;100789.97;;;19.71;56.53
48200;BME280;33990;44.602;10.976;2023-04-21T04:12:30;100793.50;;;19.72;56.50
48200;BME280;33990;44.602;10.976;2023-04-21T04:14:57;100788.28;;;19.70;56.68
48200;BME280;33990;44.602;10.976;2023-04-21T04:17:25;100793.66;;;19.70;56.45
48200;BME280;33990;44.602;10.976;2023-04-21T04:19:52;100799.03;;;19.70;56.47
48200;BME280;33990;44.602;10.976;2023-04-21T04:22:19;100796.34;;;19.70;56.67
48200;BME280;33990;44.602;10.976;2023-04-21T04:24:47;100802.56;;;19.71;56.65
48200;BME280;33990;44.602;10.976;2023-04-21T04:27:14;100803.28;;;19.73;56.67
48200;BME280;33990;44.602;10.976;2023-04-21T04:29:42;100801.44;;;19.73;56.76
48200;BME280;33990;44.602;10.976;2023-04-21T04:32:10;100796.06;;;19.73;56.72
48200;BME280;33990;44.602;10.976;2023-04-21T04:34:37;100806.81;;;19.73;56.53
48200;BME280;33990;44.602;10.976;2023-04-21T04:37:04;100801.44;;;19.73;56.65
48200;BME280;33990;44.602;10.976;2023-04-21T04:39:32;100809.50;;;19.73;56.65
48200;BME280;33990;44.602;10.976;2023-04-21T04:42:00;100808.66;;;19.73;56.76
48200;BME280;33990;44.602;10.976;2023-04-21T04:44:27;100804.25;;;19.72;56.68
48200;BME280;33990;44.602;10.976;2023-04-21T04:46:54;100807.94;;;19.71;56.68
48200;BME280;33990;44.602;10.976;2023-04-21T04:49:22;100812.31;;;19.72;56.60
48200;BME280;33990;44.602;10.976;2023-04-21T04:51:50;100811.59;;;19.70;56.58
48200;BME280;33990;44.602;10.976;2023-04-21T04:54:17;100806.22;;;19.70;56.59
48200;BME280;33990;44.602;10.976;2023-04-21T04:56:45;100808.06;;;19.69;56.64
48200;BME280;33990;44.602;10.976;2023-04-21T04:59:12;100811.59;;;19.70;56.57
48200;BME280;33990;44.602;10.976;2023-04-21T05:01:40;100811.59;;;19.70;56.49
48200;BME280;33990;44.602;10.976;2023-04-21T05:04:08;100816.97;;;19.70;56.82
48200;BME280;33990;44.602;10.976;2023-04-21T05:06:35;100816.97;;;19.70;56.71
48200;BME280;33990;44.602;10.976;2023-04-21T05:09:03;100824.19;;;19.69;56.49
48200;BME280;33990;44.602;10.976;2023-04-21T05:11:31;100825.88;;;19.70;56.59
48200;BME280;33990;44.602;10.976;2023-04-21T05:13:58;100827.72;;;19.70;56.85
48200;BME280;33990;44.602;10.976;2023-04-21T05:16:25;100826.88;;;19.69;56.76
48200;BME280;33990;44.602;10.976;2023-04-21T05:18:52;100838.47;;;19.70;56.82
48200;BME280;33990;44.602;10.976;2023-04-21T05:21:26;100839.44;;;19.69;56.81
48200;BME280;33990;44.602;10.976;2023-04-21T05:23:54;100843.94;;;19.68;56.67
48200;BME280;33990;44.602;10.976;2023-04-21T05:26:23;100847.50;;;19.69;56.70
48200;BME280;33990;44.602;10.976;2023-04-21T05:28:50;100845.69;;;19.69;56.57
48200;BME280;33990;44.602;10.976;2023-04-21T05:31:18;100843.94;;;19.68;56.78
48200;BME280;33990;44.602;10.976;2023-04-21T05:33:45;100849.31;;;19.68;56.75
48200;BME280;33990;44.602;10.976;2023-04-21T05:36:12;100846.63;;;19.68;56.55
48200;BME280;33990;44.602;10.976;2023-04-21T05:38:39;100851.16;;;19.68;56.68
48200;BME280;33990;44.602;10.976;2023-04-21T05:41:07;100852.00;;;19.68;56.72
48200;BME280;33990;44.602;10.976;2023-04-21T05:43:34;100857.38;;;19.68;56.76
48200;BME280;33990;44.602;10.976;2023-04-21T05:46:04;100853.72;;;19.69;56.86
48200;BME280;33990;44.602;10.976;2023-04-21T05:48:34;100863.63;;;19.69;56.94
48200;BME280;33990;44.602;10.976;2023-04-21T05:51:12;100859.09;;;19.69;56.91
48200;BME280;33990;44.602;10.976;2023-04-21T05:53:40;100859.09;;;19.69;56.92
48200;BME280;33990;44.602;10.976;2023-04-21T05:56:08;100858.25;;;19.69;56.77
48200;BME280;33990;44.602;10.976;2023-04-21T05:58:36;100865.44;;;19.68;56.75
48200;BME280;33990;44.602;10.976;2023-04-21T06:01:04;100866.31;;;19.69;56.89
48200;BME280;33990;44.602;10.976;2023-04-21T06:03:32;100860.06;;;19.68;56.83
48200;BME280;33990;44.602;10.976;2023-04-21T06:06:02;100862.75;;;19.68;56.76
48200;BME280;33990;44.602;10.976;2023-04-21T06:08:29;100873.50;;;19.68;56.80
48200;BME280;33990;44.602;10.976;2023-04-21T06:10:57;100863.75;;;19.67;56.70
48200;BME280;33990;44.602;10.976;2023-04-21T06:13:24;100862.03;;;19.66;56.71
48200;BME280;33990;44.602;10.976;2023-04-21T06:15:53;100863.75;;;19.67;56.85
48200;BME280;33990;44.602;10.976;2023-04-21T06:18:21;100869.13;;;19.67;56.87
48200;BME280;33990;44.602;10.976;2023-04-21T06:20:50;100871.81;;;19.67;56.88
48200;BME280;33990;44.602;10.976;2023-04-21T06:23:18;100872.78;;;19.66;56.89
48200;BME280;33990;44.602;10.976;2023-04-21T06:25:45;100863.75;;;19.67;56.84
48200;BME280;33990;44.602;10.976;2023-04-21T06:28:13;100869.13;;;19.67;57.05
48200;BME280;33990;44.602;10.976;2023-04-21T06:30:40;100871.81;;;19.67;57.08
48200;BME280;33990;44.602;10.976;2023-04-21T06:33:07;100869.13;;;19.67;57.03
48200;BME280;33990;44.602;10.976;2023-04-21T06:35:35;100870.94;;;19.67;57.12
48200;BME280;33990;44.602;10.976;2023-04-21T06:38:02;100873.63;;;19.67;57.06
48200;BME280;33990;44.602;10.976;2023-04-21T06:40:30;100871.81;;;19.67;56.97
48200;BME280;33990;44.602;10.976;2023-04-21T06:42:57;100865.44;;;19.68;57.04
48200;BME280;33990;44.602;10.976;2023-04-21T06:45:24;100867.28;;;19.68;56.96
48200;BME280;33990;44.602;10.976;2023-04-21T06:47:51;100871.81;;;19.67;56.97
48200;BME280;33990;44.602;10.976;2023-04-21T06:50:19;100872.66;;;19.68;56.83
48200;BME280;33990;44.602;10.976;2023-04-21T06:52:46;100879.00;;;19.67;57.07
48200;BME280;33990;44.602;10.976;2023-04-21T06:55:13;100874.47;;;19.67;57.18
48200;BME280;33990;44.602;10.976;2023-04-21T06:57:41;100870.94;;;19.67;56.94
48200;BME280;33990;44.602;10.976;2023-04-21T07:00:08;100876.31;;;19.67;57.03
48200;BME280;33990;44.602;10.976;2023-04-21T07:02:36;100881.69;;;19.67;56.87
48200;BME280;33990;44.602;10.976;2023-04-21T07:05:04;100878.16;;;19.66;56.87
48200;BME280;33990;44.602;10.976;2023-04-21T07:07:31;100884.38;;;19.67;57.01
48200;BME280;33990;44.602;10.976;2023-04-21T07:09:59;100885.38;;;19.66;56.79
48200;BME280;33990;44.602;10.976;2023-04-21T07:12:27;100884.53;;;19.65;56.96
48200;BME280;33990;44.602;10.976;2023-04-21T07:14:55;100884.38;;;19.67;57.05
48200;BME280;33990;44.602;10.976;2023-04-21T07:17:22;100888.06;;;19.66;56.96
48200;BME280;33990;44.602;10.976;2023-04-21T07:19:49;100890.75;;;19.66;56.69
48200;BME280;33990;44.602;10.976;2023-04-21T07:22:16;100900.63;;;19.65;56.92
48200;BME280;33990;44.602;10.976;2023-04-21T07:24:44;100890.75;;;19.66;56.83
48200;BME280;33990;44.602;10.976;2023-04-21T07:27:11;100897.97;;;19.65;57.13
48200;BME280;33990;44.602;10.976;2023-04-21T07:29:39;100901.50;;;19.66;57.04
48200;BME280;33990;44.602;10.976;2023-04-21T07:32:06;100898.81;;;19.66;56.84
48200;BME280;33990;44.602;10.976;2023-04-21T07:34:33;100903.31;;;19.65;57.06
48200;BME280;33990;44.602;10.976;2023-04-21T07:37:01;100907.72;;;19.66;56.84
48200;BME280;33990;44.602;10.976;2023-04-21T07:39:28;100913.94;;;19.67;56.89
48200;BME280;33990;44.602;10.976;2023-04-21T07:41:55;100904.16;;;19.66;57.27
48200;BME280;33990;44.602;10.976;2023-04-21T07:44:23;100914.78;;;19.67;57.25
48200;BME280;33990;44.602;10.976;2023-04-21T07:46:50;100913.94;;;19.67;57.45
48200;BME280;33990;44.602;10.976;2023-04-21T07:49:17;100910.41;;;19.66;57.53
48200;BME280;33990;44.602;10.976;2023-04-21T07:51:45;100922.13;;;19.65;57.37
48200;BME280;33990;44.602;10.976;2023-04-21T07:54:12;100921.28;;;19.65;57.19
48200;BME280;33990;44.602;10.976;2023-04-21T07:56:39;100919.56;;;19.64;57.44
48200;BME280;33990;44.602;10.976;2023-04-21T07:59:07;100921.38;;;19.63;57.37
48200;BME280;33990;44.602;10.976;2023-04-21T08:01:34;100928.59;;;19.63;57.55
48200;BME280;33990;44.602;10.976;2023-04-21T08:04:01;100926.91;;;19.62;57.39
48200;BME280;33990;44.602;10.976;2023-04-21T08:06:28;100925.06;;;19.62;57.70
48200;BME280;33990;44.602;10.976;2023-04-21T08:08:56;100925.19;;;19.61;57.92
48200;BME280;33990;44.602;10.976;2023-04-21T08:11:23;100929.66;;;19.60;57.63
48200;BME280;33990;44.602;10.976;2023-04-21T08:13:51;100925.19;;;19.61;57.73
48200;BME280;33990;44.602;10.976;2023-04-21T08:16:18;100936.88;;;19.60;57.62
48200;BME280;33990;44.602;10.976;2023-04-21T08:18:45;100933.34;;;19.59;57.68
48200;BME280;33990;44.602;10.976;2023-04-21T08:21:13;100941.41;;;19.59;57.63
48200;BME280;33990;44.602;10.976;2023-04-21T08:23:40;100942.25;;;19.60;57.54
48200;BME280;33990;44.602;10.976;2023-04-21T08:26:08;100946.66;;;19.61;57.55
48200;BME280;33990;44.602;10.976;2023-04-21T08:28:35;100947.63;;;19.60;57.59
48200;BME280;33990;44.602;10.976;2023-04-21T08:31:03;100946.78;;;19.59;57.79
48200;BME280;33990;44.602;10.976;2023-04-21T08:33:31;100949.47;;;19.59;57.85
48200;BME280;33990;44.602;10.976;2023-04-21T08:35:58;100955.81;;;19.58;57.64
48200;BME280;33990;44.602;10.976;2023-04-21T08:38:42;100954.97;;;19.58;57.79
48200;BME280;33990;44.602;10.976;2023-04-21T08:41:10;100957.66;;;19.58;57.78
48200;BME280;33990;44.602;10.976;2023-04-21T08:43:39;100953.97;;;19.59;57.83
48200;BME280;33990;44.602;10.976;2023-04-21T08:46:07;100950.44;;;19.58;57.59
48200;BME280;33990;44.602;10.976;2023-04-21T08:48:36;100953.13;;;19.58;57.66
48200;BME280;33990;44.602;10.976;2023-04-21T08:51:06;100952.16;;;19.59;57.50
48200;BME280;33990;44.602;10.976;2023-04-21T08:53:39;100953.84;;;19.60;57.48
48200;BME280;33990;44.602;10.976;2023-04-21T08:56:07;100953.84;;;19.60;57.58
48200;BME280;33990;44.602;10.976;2023-04-21T08:58:38;100946.66;;;19.61;57.67
48200;BME280;33990;44.602;10.976;2023-04-21T09:01:05;100958.28;;;19.61;57.79
48200;BME280;33990;44.602;10.976;2023-04-21T09:03:32;100956.53;;;19.60;57.91
48200;BME280;33990;44.602;10.976;2023-04-21T09:06:05;100953.84;;;19.60;57.70
48200;BME280;33990;44.602;10.976;2023-04-21T09:08:41;100953.84;;;19.60;57.56
48200;BME280;33990;44.602;10.976;2023-04-21T09:11:13;100951.16;;;19.60;57.81
48200;BME280;33990;44.602;10.976;2023-04-21T09:13:41;100960.19;;;19.59;57.64
48200;BME280;33990;44.602;10.976;2023-04-21T09:16:20;100951.16;;;19.60;57.96
48200;BME280;33990;44.602;10.976;2023-04-21T09:18:49;100954.81;;;19.59;57.69
48200;BME280;33990;44.602;10.976;2023-04-21T09:21:18;100957.50;;;19.59;57.68
48200;BME280;33990;44.602;10.976;2023-04-21T09:23:51;100960.19;;;19.59;57.60
48200;BME280;33990;44.602;10.976;2023-04-21T09:26:20;100953.97;;;19.59;57.65
48200;BME280;33990;44.602;10.976;2023-04-21T09:28:52;100958.38;;;19.60;57.44
48200;BME280;33990;44.602;10.976;2023-04-21T09:31:21;100964.72;;;19.59;57.35
48200;BME280;33990;44.602;10.976;2023-04-21T09:33:54;100963.88;;;19.58;57.32
48200;BME280;33990;44.602;10.976;2023-04-21T09:36:29;100963.88;;;19.58;57.31
48200;BME280;33990;44.602;10.976;2023-04-21T09:38:59;100968.41;;;19.58;57.26
48200;BME280;33990;44.602;10.976;2023-04-21T09:41:30;100958.50;;;19.58;57.37
48200;BME280;33990;44.602;10.976;2023-04-21T09:43:59;100956.66;;;19.59;57.37
48200;BME280;33990;44.602;10.976;2023-04-21T09:46:33;100955.81;;;19.58;57.05
48200;BME280;33990;44.602;10.976;2023-04-21T09:49:02;100953.13;;;19.58;57.14
48200;BME280;33990;44.602;10.976;2023-04-21T09:51:30;100952.16;;;19.59;57.36
48200;BME280;33990;44.602;10.976;2023-04-21T09:54:20;100949.47;;;19.59;57.36
48200;BME280;33990;44.602;10.976;2023-04-21T09:57:01;100955.69;;;19.60;57.41
48200;BME280;33990;44.602;10.976;2023-04-21T09:59:33;100950.31;;;19.60;57.45
48200;BME280;33990;44.602;10.976;2023-04-21T10:02:05;100952.16;;;19.59;57.32
48200;BME280;33990;44.602;10.976;2023-04-21T10:04:35;100946.78;;;19.59;57.27
48200;BME280;33990;44.602;10.976;2023-04-21T10:07:04;100945.94;;;19.59;57.06
48200;BME280;33990;44.602;10.976;2023-04-21T10:09:37;100944.09;;;19.59;57.22
48200;BME280;33990;44.602;10.976;2023-04-21T10:12:08;100942.25;;;19.60;57.17
48200;BME280;33990;44.602;10.976;2023-04-21T10:14:36;100932.50;;;19.59;57.24
48200;BME280;33990;44.602;10.976;2023-04-21T10:17:05;100944.09;;;19.59;57.20
48200;BME280;33990;44.602;10.976;2023-04-21T10:19:34;100930.66;;;19.59;57.24
48200;BME280;33990;44.602;10.976;2023-04-21T10:22:09;100934.19;;;19.60;57.24
48200;BME280;33990;44.602;10.976;2023-04-21T10:24:41;100944.09;;;19.59;57.31
48200;BME280;33990;44.602;10.976;2023-04-21T10:27:10;100931.50;;;19.60;57.20
48200;BME280;33990;44.602;10.976;2023-04-21T10:29:38;100938.72;;;19.59;56.95
48200;BME280;33990;44.602;10.976;2023-04-21T10:32:40;100929.81;;;19.59;56.85
48200;BME280;33990;44.602;10.976;2023-04-21T10:35:13;100933.34;;;19.59;56.86
48200;BME280;33990;44.602;10.976;2023-04-21T10:37:42;100936.03;;;19.59;56.77
48200;BME280;33990;44.602;10.976;2023-04-21T10:40:38;100933.34;;;19.59;56.70
48200;BME280;33990;44.602;10.976;2023-04-21T10:43:44;100936.88;;;19.60;56.56
48200;BME280;33990;44.602;10.976;2023-04-21T10:51:32;100932.34;;;19.60;56.32
48200;BME280;33990;44.602;10.976;2023-04-21T10:53:59;100935.03;;;19.60;56.63
48200;BME280;33990;44.602;10.976;2023-04-21T10:56:31;100923.38;;;19.61;56.54
48200;BME280;33990;44.602;10.976;2023-04-21T10:58:59;100936.81;;;19.61;56.43
48200;BME280;33990;44.602;10.976;2023-04-21T11:01:27;100935.81;;;19.62;56.50
48200;BME280;33990;44.602;10.976;2023-04-21T11:03:54;100925.91;;;19.63;56.29
48200;BME280;33990;44.602;10.976;2023-04-21T11:06:24;100930.28;;;19.64;56.30
48200;BME280;33990;44.602;10.976;2023-04-21T11:08:56;100929.34;;;19.65;56.36
48200;BME280;33990;44.602;10.976;2023-04-21T11:11:24;100925.78;;;19.64;56.33
48200;BME280;33990;44.602;10.976;2023-04-21T11:13:52;100922.97;;;19.66;56.24
48200;BME280;33990;44.602;10.976;2023-04-21T11:16:21;100918.44;;;19.66;56.20
48200;BME280;33990;44.602;10.976;2023-04-21T11:18:48;100920.16;;;19.67;56.28
48200;BME280;33990;44.602;10.976;2023-04-21T11:21:17;100930.03;;;19.67;56.39
48200;BME280;33990;44.602;10.976;2023-04-21T11:23:53;100921.84;;;19.68;56.10
48200;BME280;33990;44.602;10.976;2023-04-21T11:26:34;100920.03;;;19.69;56.05
48200;BME280;33990;44.602;10.976;2023-04-21T11:29:03;100921.72;;;19.70;56.04
48200;BME280;33990;44.602;10.976;2023-04-21T11:31:33;100911.97;;;19.69;56.13
48200;BME280;33990;44.602;10.976;2023-04-21T11:34:01;100912.69;;;19.71;56.38
48200;BME280;33990;44.602;10.976;2023-04-21T11:36:35;100911.69;;;19.72;56.29
48200;BME280;33990;44.602;10.976;2023-04-21T11:39:10;100899.09;;;19.72;56.17
48200;BME280;33990;44.602;10.976;2023-04-21T11:41:48;100900.94;;;19.72;56.28
48200;BME280;33990;44.602;10.976;2023-04-21T11:44:37;100904.47;;;19.72;56.23
48200;BME280;33990;44.602;10.976;2023-04-21T11:55:00;100898.13;;;19.73;56.15
48200;BME280;33990;44.602;10.976;2023-04-21T11:57:29;100887.41;;;19.73;56.07
48200;BME280;33990;44.602;10.976;2023-04-21T11:59:58;100897.28;;;19.73;56.20
48200;BME280;33990;44.602;10.976;2023-04-21T12:02:28;100891.94;;;19.73;56.17
48200;BME280;33990;44.602;10.976;2023-04-21T12:05:06;100889.25;;;19.73;55.18
48200;BME280;33990;44.602;10.976;2023-04-21T12:07:37;100892.19;;;19.70;55.26
48200;BME280;33990;44.602;10.976;2023-04-21T12:12:37;100890.34;;;19.70;54.90
48200;BME280;33990;44.602;10.976;2023-04-21T12:15:06;100886.81;;;19.70;55.45
48200;BME280;33990;44.602;10.976;2023-04-21T12:17:37;100894.72;;;19.71;55.44
48200;BME280;33990;44.602;10.976;2023-04-21T12:20:09;100892.03;;;19.71;55.70
48200;BME280;33990;44.602;10.976;2023-04-21T12:22:38;100896.41;;;19.72;55.43
48200;BME280;33990;44.602;10.976;2023-04-21T12:25:05;100893.63;;;19.74;55.50
48200;BME280;33990;44.602;10.976;2023-04-21T12:27:33;100896.16;;;19.75;55.49
48200;BME280;33990;44.602;10.976;2023-04-21T12:30:01;100882.88;;;19.74;55.19
48200;BME280;33990;44.602;10.976;2023-04-21T12:32:30;100884.56;;;19.75;55.31
48200;BME280;33990;44.602;10.976;2023-04-21T12:34:57;100888.94;;;19.76;55.08
48200;BME280;33990;44.602;10.976;2023-04-21T12:37:26;100885.31;;;19.77;55.20
48200;BME280;33990;44.602;10.976;2023-04-21T12:39:54;100896.03;;;19.77;54.99
48200;BME280;33990;44.602;10.976;2023-04-21T12:42:21;100893.34;;;19.77;55.05
48200;BME280;33990;44.602;10.976;2023-04-21T12:44:49;100898.72;;;19.77;54.78
48200;BME280;33990;44.602;10.976;2023-04-21T12:47:16;100894.22;;;19.78;55.02
48200;BME280;33990;44.602;10.976;2023-04-21T12:49:44;100889.78;;;19.76;55.20
48200;BME280;33990;44.602;10.976;2023-04-21T12:52:11;100890.69;;;19.77;55.15
48200;BME280;33990;44.602;10.976;2023-04-21T12:54:38;100881.72;;;19.76;55.17
48200;BME280;33990;44.602;10.976;2023-04-21T12:57:06;100884.41;;;19.76;55.50
48200;BME280;33990;44.602;10.976;2023-04-21T12:59:33;100887.97;;;19.77;55.26
48200;BME280;33990;44.602;10.976;2023-04-21T13:02:01;100885.16;;;19.79;55.89
48200;BME280;33990;44.602;10.976;2023-04-21T13:04:29;100878.94;;;19.78;55.28
48200;BME280;33990;44.602;10.976;2023-04-21T13:06:56;100884.16;;;19.80;55.63